Time;durP1;ratioP1;P1;durP2;ratioP2;P2;SDS_P1;SDS_P2;PMS_P1;PMS_P2;Temp;Humidity;BMP_temperature;BMP_pressure;BME280_temperature;BME280_humidity;BME280_pressure;Samples;Min_cycle;Max_cycle;Signal;HPM_P1;HPM_P2
2022/02/06 00:00:52;;;;;;;7.90;3.37;;;;;;;;;;5049821;28;21002;-76
2022/02/06 00:03:18;;;;;;;11.47;3.67;;;;;;;;;;5044706;28;20193;-75
2022/02/06 00:05:44;;;;;;;13.37;3.70;;;;;;;;;;5046394;28;20358;-74
2022/02/06 00:08:12;;;;;;;13.77;4.03;;;;;;;;;;5048163;28;20197;-73
2022/02/06 00:10:39;;;;;;;14.53;3.63;;;;;;;;;;5056091;28;20189;-74
2022/02/06 00:13:05;;;;;;;12.17;3.87;;;;;;;;;;5048503;28;20193;-74
2022/02/06 00:15:30;;;;;;;14.13;3.60;;;;;;;;;;5046291;28;20260;-75
2022/02/06 00:17:55;;;;;;;14.23;3.83;;;;;;;;;;5047477;28;20205;-72
2022/02/06 00:20:23;;;;;;;10.67;3.87;;;;;;;;;;5046579;28;20204;-73
2022/02/06 00:22:56;;;;;;;11.47;3.83;;;;;;;;;;5047056;28;20481;-74
2022/02/06 00:33:02;;;;;;;11.20;3.83;;;;;;;;;;5047752;28;20185;-73
2022/02/06 00:35:48;;;;;;;9.27;3.83;;;;;;;;;;5050250;28;20192;-74
2022/02/06 00:43:04;;;;;;;12.63;4.90;;;;;;;;;;5048020;28;20193;-72
2022/02/06 00:45:30;;;;;;;14.87;4.63;;;;;;;;;;5046249;28;20205;-73
2022/02/06 00:47:55;;;;;;;10.50;4.27;;;;;;;;;;5045810;28;20196;-74
2022/02/06 00:50:20;;;;;;;13.97;4.80;;;;;;;;;;5046112;28;20185;-74
2022/02/06 00:53:00;;;;;;;10.67;4.40;;;;;;;;;;5047825;28;20198;-72
2022/02/06 00:55:25;;;;;;;10.00;4.50;;;;;;;;;;5047961;28;20186;-73
2022/02/06 00:57:51;;;;;;;8.40;4.13;;;;;;;;;;5048051;28;20694;-73
2022/02/06 01:00:16;;;;;;;10.33;4.87;;;;;;;;;;5056878;28;20351;-75
2022/02/06 01:02:42;;;;;;;10.77;5.07;;;;;;;;;;5047970;28;20678;-74
2022/02/06 01:05:07;;;;;;;10.60;4.73;;;;;;;;;;5045513;28;20214;-72
2022/02/06 01:07:33;;;;;;;12.47;4.63;;;;;;;;;;5044029;28;20276;-73
2022/02/06 01:09:58;;;;;;;7.73;4.43;;;;;;;;;;5047002;28;20186;-74
2022/02/06 01:12:26;;;;;;;12.93;5.03;;;;;;;;;;5047322;28;20332;-73
2022/02/06 01:15:07;;;;;;;14.37;5.13;;;;;;;;;;5047181;28;20200;-72
2022/02/06 01:17:44;;;;;;;9.07;3.87;;;;;;;;;;5046153;28;20180;-72
2022/02/06 01:20:20;;;;;;;10.80;4.43;;;;;;;;;;5046530;28;20640;-74
2022/02/06 01:22:54;;;;;;;13.20;4.50;;;;;;;;;;5040944;28;20188;-73
2022/02/06 01:25:29;;;;;;;11.30;4.10;;;;;;;;;;5056587;28;20727;-74
2022/02/06 01:28:00;;;;;;;8.87;4.17;;;;;;;;;;5046173;28;20185;-71
2022/02/06 01:33:04;;;;;;;13.07;4.07;;;;;;;;;;5046631;28;20641;-72
2022/02/06 01:35:37;;;;;;;9.90;4.30;;;;;;;;;;5039798;28;20186;-73
2022/02/06 01:38:18;;;;;;;9.73;4.37;;;;;;;;;;5047635;28;20252;-74
2022/02/06 01:43:29;;;;;;;11.40;4.17;;;;;;;;;;5044469;28;20197;-76
2022/02/06 02:10:07;;;;;;;8.60;4.00;;;;;;;;;;5041331;28;20754;-72
2022/02/06 02:15:26;;;;;;;9.73;4.00;;;;;;;;;;5037760;28;20209;-71
2022/02/06 02:18:10;;;;;;;9.37;3.60;;;;;;;;;;5048684;28;20230;-74
2022/02/06 02:47:22;;;;;;;11.73;3.73;;;;;;;;;;5047898;28;21244;-73
2022/02/06 02:52:31;;;;;;;6.93;3.23;;;;;;;;;;5046146;28;20657;-71
2022/02/06 02:55:13;;;;;;;6.10;3.30;;;;;;;;;;5043312;28;20177;-71
2022/02/06 02:57:55;;;;;;;7.40;3.17;;;;;;;;;;5047805;28;20181;-73
2022/02/06 03:00:39;;;;;;;6.23;3.20;;;;;;;;;;5042265;28;20258;-72
2022/02/06 03:05:51;;;;;;;6.37;3.80;;;;;;;;;;5044685;28;20225;-73
2022/02/06 03:08:17;;;;;;;8.80;3.93;;;;;;;;;;5049889;28;20184;-74
2022/02/06 03:10:43;;;;;;;7.87;3.63;;;;;;;;;;5047656;28;20194;-73
2022/02/06 03:13:11;;;;;;;5.03;3.10;;;;;;;;;;5057922;28;20177;-74
2022/02/06 03:16:25;;;;;;;13.53;3.33;;;;;;;;;;5042878;28;20684;-74
2022/02/06 03:18:28;;;;;;;8.60;3.40;;;;;;;;;;5048173;28;20262;-74
2022/02/06 03:20:54;;;;;;;8.97;3.80;;;;;;;;;;5042520;28;20185;-72
2022/02/06 03:23:20;;;;;;;7.88;3.70;;;;;;;;;;5046495;28;20643;-74
2022/02/06 03:25:55;;;;;;;9.40;3.70;;;;;;;;;;5041420;28;20438;-74
2022/02/06 03:28:25;;;;;;;7.60;3.53;;;;;;;;;;5059646;28;20187;-74
2022/02/06 03:30:52;;;;;;;5.53;3.40;;;;;;;;;;5050294;28;20208;-74
2022/02/06 03:33:18;;;;;;;8.73;3.63;;;;;;;;;;5048245;28;20623;-72
2022/02/06 03:35:44;;;;;;;8.88;3.05;;;;;;;;;;5051110;28;20360;-72
2022/02/06 03:38:09;;;;;;;7.60;3.50;;;;;;;;;;5054045;28;20185;-72
2022/02/06 03:48:58;;;;;;;6.60;3.40;;;;;;;;;;5042850;28;20229;-73
2022/02/06 03:51:31;;;;;;;7.75;3.30;;;;;;;;;;5049905;28;20456;-74
2022/02/06 03:53:56;;;;;;;6.10;2.72;;;;;;;;;;5053840;28;20206;-73
2022/02/06 03:56:23;;;;;;;3.92;3.00;;;;;;;;;;5049732;28;20284;-72
2022/02/06 03:58:48;;;;;;;6.07;3.10;;;;;;;;;;5058473;28;20605;-74
2022/02/06 04:01:14;;;;;;;5.73;3.00;;;;;;;;;;5048933;28;20224;-72
2022/02/06 04:03:40;;;;;;;9.27;3.33;;;;;;;;;;5057040;28;20618;-72
2022/02/06 04:06:06;;;;;;;5.83;2.90;;;;;;;;;;5049000;28;20696;-73
2022/02/06 04:08:34;;;;;;;6.03;3.20;;;;;;;;;;5045159;28;20218;-71
2022/02/06 04:11:03;;;;;;;6.32;3.25;;;;;;;;;;5048326;28;20181;-71
2022/02/06 04:13:30;;;;;;;7.35;3.13;;;;;;;;;;5044545;28;20675;-73
2022/02/06 04:15:59;;;;;;;7.10;3.20;;;;;;;;;;5045576;28;20236;-73
2022/02/06 04:18:36;;;;;;;4.60;2.67;;;;;;;;;;5047274;28;20185;-73
2022/02/06 04:21:03;;;;;;;4.97;3.30;;;;;;;;;;5045853;28;20342;-74
2022/02/06 04:23:30;;;;;;;6.13;3.20;;;;;;;;;;5045067;28;20268;-73
2022/02/06 04:25:55;;;;;;;5.13;3.03;;;;;;;;;;5046371;28;20228;-73
2022/02/06 04:28:21;;;;;;;6.13;2.80;;;;;;;;;;5040222;28;20647;-73
2022/02/06 04:30:46;;;;;;;4.73;3.30;;;;;;;;;;5046271;28;20257;-73
2022/02/06 04:33:11;;;;;;;5.70;3.40;;;;;;;;;;5043337;28;20189;-74
2022/02/06 04:35:39;;;;;;;5.90;3.47;;;;;;;;;;5046333;28;20178;-72
2022/02/06 04:38:26;;;;;;;7.47;3.20;;;;;;;;;;5039353;28;20268;-73
2022/02/06 04:50:09;;;;;;;5.87;3.30;;;;;;;;;;5045514;28;20307;-73
2022/02/06 04:55:09;;;;;;;6.00;3.10;;;;;;;;;;5043751;28;20603;-74
2022/02/06 05:12:42;;;;;;;5.53;3.00;;;;;;;;;;5050483;28;20175;-73
2022/02/06 05:22:29;;;;;;;5.60;2.97;;;;;;;;;;5050381;28;20189;-71
2022/02/06 05:25:25;;;;;;;7.47;3.23;;;;;;;;;;5043073;28;20202;-72
2022/02/06 05:28:34;;;;;;;4.80;2.70;;;;;;;;;;5046358;28;20696;-72
2022/02/06 05:30:47;;;;;;;8.45;2.95;;;;;;;;;;5050547;28;20220;-72
2022/02/06 05:33:12;;;;;;;7.57;2.87;;;;;;;;;;5059033;28;20185;-72
2022/02/06 05:35:39;;;;;;;6.30;2.70;;;;;;;;;;5048631;28;20210;-72
2022/02/06 05:38:04;;;;;;;10.10;3.63;;;;;;;;;;5052902;28;20182;-71
2022/02/06 05:40:30;;;;;;;6.17;2.97;;;;;;;;;;5044599;28;20253;-73
2022/02/06 05:42:55;;;;;;;6.13;2.80;;;;;;;;;;5049336;28;20197;-72
2022/02/06 05:45:21;;;;;;;4.43;2.53;;;;;;;;;;5043314;28;20205;-72
2022/02/06 05:47:47;;;;;;;8.23;3.37;;;;;;;;;;5047097;28;20223;-72
2022/02/06 05:50:16;;;;;;;4.80;3.10;;;;;;;;;;5043291;28;20197;-72
2022/02/06 05:52:42;;;;;;;7.20;2.97;;;;;;;;;;5058958;28;20185;-72
2022/02/06 05:55:09;;;;;;;7.23;3.03;;;;;;;;;;5044672;28;20186;-71
2022/02/06 05:57:35;;;;;;;10.53;3.67;;;;;;;;;;5048502;28;20189;-72
2022/02/06 06:00:01;;;;;;;8.10;3.03;;;;;;;;;;5044598;28;20280;-72
2022/02/06 06:02:26;;;;;;;8.20;3.20;;;;;;;;;;5046206;28;20233;-72
2022/02/06 06:04:54;;;;;;;9.40;3.40;;;;;;;;;;5043239;28;20201;-71
2022/02/06 06:07:19;;;;;;;8.40;3.67;;;;;;;;;;5045495;28;20217;-71
2022/02/06 06:09:44;;;;;;;9.17;3.47;;;;;;;;;;5042101;28;20616;-71
2022/02/06 06:12:10;;;;;;;9.70;3.20;;;;;;;;;;5049037;28;20177;-71
2022/02/06 06:14:35;;;;;;;7.37;3.23;;;;;;;;;;5042997;28;20193;-72
2022/02/06 06:17:01;;;;;;;11.33;3.00;;;;;;;;;;5049158;28;20173;-73
2022/02/06 06:19:26;;;;;;;8.37;3.13;;;;;;;;;;5042853;28;20189;-72
2022/02/06 06:21:55;;;;;;;11.97;3.37;;;;;;;;;;5047852;28;20231;-71
2022/02/06 06:24:25;;;;;;;14.27;3.60;;;;;;;;;;5041854;28;20284;-71
2022/02/06 06:26:51;;;;;;;17.63;3.73;;;;;;;;;;5046114;28;20287;-71
2022/02/06 06:29:17;;;;;;;16.70;3.90;;;;;;;;;;5042177;28;20193;-71
2022/02/06 06:31:42;;;;;;;13.70;3.20;;;;;;;;;;5046330;28;20240;-69
2022/02/06 06:34:08;;;;;;;19.93;3.53;;;;;;;;;;5041061;28;20723;-69
2022/02/06 06:36:35;;;;;;;22.87;3.40;;;;;;;;;;5045375;28;20269;-70
2022/02/06 06:39:03;;;;;;;18.47;3.10;;;;;;;;;;5040289;28;20230;-70
2022/02/06 06:41:28;;;;;;;22.58;3.70;;;;;;;;;;5047381;28;20667;-69
2022/02/06 06:43:53;;;;;;;16.33;3.33;;;;;;;;;;5041716;28;20185;-71
2022/02/06 06:46:19;;;;;;;24.42;3.65;;;;;;;;;;5047293;28;20181;-72
2022/02/06 06:48:47;;;;;;;19.73;3.33;;;;;;;;;;5042631;28;20519;-71
2022/02/06 06:51:14;;;;;;;16.60;2.97;;;;;;;;;;5041151;28;20181;-72
2022/02/06 06:53:43;;;;;;;28.55;3.80;;;;;;;;;;5043392;28;20308;-70
2022/02/06 06:56:16;;;;;;;19.25;3.00;;;;;;;;;;5033093;28;20181;-72
2022/02/06 06:58:49;;;;;;;21.35;2.80;;;;;;;;;;5045936;28;20192;-71
2022/02/06 07:02:16;;;;;;;25.23;2.97;;;;;;;;;;5044162;28;20217;-72
2022/02/06 07:04:01;;;;;;;27.85;3.17;;;;;;;;;;5042960;28;20655;-72
2022/02/06 07:06:26;;;;;;;12.80;2.65;;;;;;;;;;5043721;28;20269;-71
2022/02/06 07:08:52;;;;;;;22.63;3.95;;;;;;;;;;5048629;28;20267;-71
2022/02/06 07:11:17;;;;;;;15.23;2.67;;;;;;;;;;5042554;28;20189;-72
2022/02/06 07:13:42;;;;;;;18.02;2.90;;;;;;;;;;5040011;28;20186;-73
2022/02/06 07:16:10;;;;;;;18.33;3.17;;;;;;;;;;5042367;28;20197;-73
2022/02/06 07:18:35;;;;;;;18.55;2.80;;;;;;;;;;5041254;28;20247;-72
2022/02/06 07:21:01;;;;;;;13.82;2.20;;;;;;;;;;5042373;28;20193;-73
2022/02/06 07:23:26;;;;;;;14.25;2.78;;;;;;;;;;5045565;28;20177;-73
2022/02/06 07:25:53;;;;;;;11.98;2.25;;;;;;;;;;5043178;28;20735;-73
2022/02/06 07:28:20;;;;;;;13.80;2.60;;;;;;;;;;5053830;28;20189;-73
2022/02/06 07:30:46;;;;;;;15.60;3.00;;;;;;;;;;5046082;28;20216;-73
2022/02/06 07:33:14;;;;;;;15.02;3.25;;;;;;;;;;5051797;28;20648;-72
2022/02/06 07:35:40;;;;;;;12.00;2.70;;;;;;;;;;5045044;28;20181;-73
2022/02/06 07:38:07;;;;;;;8.48;2.53;;;;;;;;;;5055945;28;20187;-73
2022/02/06 07:40:33;;;;;;;14.43;3.00;;;;;;;;;;5046443;28;20636;-74
2022/02/06 07:42:58;;;;;;;9.93;3.08;;;;;;;;;;5049854;28;20199;-71
2022/02/06 07:45:23;;;;;;;13.03;3.20;;;;;;;;;;4346212;28;9999924;-74
2022/02/06 07:47:49;;;;;;;14.07;3.97;;;;;;;;;;5040099;28;20762;-73
2022/02/06 07:50:16;;;;;;;9.70;3.63;;;;;;;;;;5037660;28;20185;-72
2022/02/06 07:52:42;;;;;;;14.45;4.60;;;;;;;;;;5036577;28;20220;-72
2022/02/06 07:55:08;;;;;;;8.13;4.20;;;;;;;;;;5041461;28;20205;-73
2022/02/06 07:57:35;;;;;;;10.55;4.60;;;;;;;;;;5040235;28;20268;-72
2022/02/06 08:00:02;;;;;;;9.93;4.82;;;;;;;;;;5044329;28;20188;-72
2022/02/06 08:02:28;;;;;;;14.30;5.40;;;;;;;;;;5039005;28;20290;-74
2022/02/06 08:04:53;;;;;;;12.90;5.40;;;;;;;;;;5044419;28;20555;-73
2022/02/06 08:07:18;;;;;;;9.15;5.20;;;;;;;;;;5043630;28;20216;-72
2022/02/06 08:09:58;;;;;;;12.82;5.90;;;;;;;;;;5047468;28;20177;-74
2022/02/06 08:12:27;;;;;;;7.60;4.82;;;;;;;;;;5043332;28;20193;-72
2022/02/06 08:14:55;;;;;;;11.63;5.25;;;;;;;;;;5051222;28;20596;-73
2022/02/06 08:17:40;;;;;;;9.68;5.07;;;;;;;;;;5043975;28;20710;-72
2022/02/06 08:20:12;;;;;;;7.80;4.80;;;;;;;;;;5048775;28;20194;-74
2022/02/06 08:22:38;;;;;;;10.87;6.27;;;;;;;;;;5042893;28;20174;-75
2022/02/06 08:25:05;;;;;;;11.97;5.50;;;;;;;;;;5051427;28;20207;-71
2022/02/06 08:27:31;;;;;;;6.97;4.95;;;;;;;;;;5061213;28;20193;-72
2022/02/06 08:29:58;;;;;;;9.87;5.03;;;;;;;;;;5044081;28;20315;-73
2022/02/06 08:32:26;;;;;;;10.82;5.53;;;;;;;;;;5049496;28;20185;-73
2022/02/06 08:34:52;;;;;;;6.50;4.75;;;;;;;;;;5047228;28;20189;-75
2022/02/06 08:37:17;;;;;;;10.95;4.97;;;;;;;;;;5047050;28;20569;-74
2022/02/06 08:39:47;;;;;;;5.25;3.97;;;;;;;;;;5044557;28;20211;-74
2022/02/06 08:42:13;;;;;;;9.07;4.60;;;;;;;;;;5029026;28;20213;-72
2022/02/06 08:44:41;;;;;;;9.90;4.72;;;;;;;;;;5041139;28;20228;-72
2022/02/06 08:47:08;;;;;;;9.15;4.28;;;;;;;;;;5056658;28;20189;-73
2022/02/06 08:49:35;;;;;;;7.70;4.28;;;;;;;;;;5041298;28;20600;-72
2022/02/06 08:52:01;;;;;;;8.20;4.27;;;;;;;;;;5053287;28;20186;-71
2022/02/06 08:54:30;;;;;;;6.53;4.75;;;;;;;;;;5042655;28;20180;-73
2022/02/06 08:57:01;;;;;;;7.70;4.38;;;;;;;;;;5049580;28;20188;-73
2022/02/06 08:59:30;;;;;;;8.63;4.38;;;;;;;;;;5047593;28;20558;-73
2022/02/06 09:01:55;;;;;;;7.85;4.10;;;;;;;;;;5044759;28;20257;-73
2022/02/06 09:04:21;;;;;;;5.68;4.25;;;;;;;;;;5043697;28;20309;-72
2022/02/06 09:06:46;;;;;;;7.10;4.38;;;;;;;;;;5041655;28;20195;-73
2022/02/06 09:09:14;;;;;;;7.67;4.80;;;;;;;;;;5041907;28;20267;-74
2022/02/06 09:11:40;;;;;;;7.65;4.47;;;;;;;;;;5046353;28;20196;-74
2022/02/06 09:14:05;;;;;;;7.90;4.85;;;;;;;;;;5048150;28;20177;-73
2022/02/06 09:16:30;;;;;;;7.82;4.72;;;;;;;;;;5043136;28;20286;-71
2022/02/06 09:18:56;;;;;;;5.20;4.50;;;;;;;;;;5045399;28;20252;-72
2022/02/06 09:21:23;;;;;;;7.97;4.65;;;;;;;;;;5036015;28;20220;-73
2022/02/06 09:23:48;;;;;;;7.82;4.80;;;;;;;;;;5046638;28;20244;-71
2022/02/06 09:26:14;;;;;;;7.15;4.72;;;;;;;;;;5043823;28;20221;-73
2022/02/06 09:28:39;;;;;;;7.97;4.57;;;;;;;;;;5046167;28;20537;-72
2022/02/06 09:31:05;;;;;;;6.20;4.40;;;;;;;;;;5039139;28;20694;-71
2022/02/06 09:35:55;;;;;;;7.93;4.07;;;;;;;;;;5043363;28;20247;-74
2022/02/06 09:38:21;;;;;;;7.18;3.65;;;;;;;;;;5050635;28;20566;-72
2022/02/06 09:40:48;;;;;;;4.72;3.30;;;;;;;;;;5041638;28;20185;-74
2022/02/06 09:43:14;;;;;;;4.15;3.10;;;;;;;;;;5044492;28;20185;-73
2022/02/06 09:45:46;;;;;;;7.35;3.30;;;;;;;;;;5038216;28;20209;-74
2022/02/06 09:48:13;;;;;;;4.63;2.50;;;;;;;;;;5041475;28;20256;-73
2022/02/06 09:50:42;;;;;;;4.27;2.70;;;;;;;;;;5041445;28;20646;-72
2022/02/06 09:53:08;;;;;;;4.60;2.20;;;;;;;;;;5037228;28;20394;-75
2022/02/06 09:55:33;;;;;;;3.60;2.30;;;;;;;;;;5042120;28;20249;-74
2022/02/06 09:58:16;;;;;;;6.30;1.90;;;;;;;;;;5046197;28;20276;-73
2022/02/06 10:00:43;;;;;;;5.17;2.07;;;;;;;;;;5047221;28;20184;-73
2022/02/06 10:03:11;;;;;;;4.50;2.00;;;;;;;;;;5049031;28;20553;-73
2022/02/06 10:05:41;;;;;;;2.93;1.80;;;;;;;;;;5043724;28;20319;-72
2022/02/06 10:08:43;;;;;;;1.90;1.70;;;;;;;;;;5049680;28;20205;-73
2022/02/06 10:11:14;;;;;;;2.27;1.50;;;;;;;;;;5048655;28;20351;-72
2022/02/06 10:13:40;;;;;;;4.27;1.80;;;;;;;;;;5041015;28;20610;-72
2022/02/06 10:16:09;;;;;;;4.30;1.80;;;;;;;;;;5055841;28;20227;-73
2022/02/06 10:18:35;;;;;;;2.83;1.60;;;;;;;;;;5043695;28;20197;-75
2022/02/06 10:21:00;;;;;;;2.93;1.60;;;;;;;;;;5051486;28;20602;-74
2022/02/06 10:23:44;;;;;;;3.30;2.10;;;;;;;;;;5043123;28;20173;-73
2022/02/06 10:26:26;;;;;;;2.47;1.87;;;;;;;;;;5050913;28;20250;-73
2022/02/06 10:31:57;;;;;;;2.30;1.60;;;;;;;;;;5044369;28;20217;-72
2022/02/06 10:34:25;;;;;;;3.37;1.60;;;;;;;;;;5052202;28;20168;-72
2022/02/06 10:37:09;;;;;;;4.17;2.07;;;;;;;;;;5048819;28;20189;-73
2022/02/06 10:39:38;;;;;;;2.20;1.58;;;;;;;;;;5051592;28;20204;-75
2022/02/06 10:42:03;;;;;;;3.63;1.80;;;;;;;;;;5045492;28;20186;-73
2022/02/06 10:44:29;;;;;;;3.17;1.95;;;;;;;;;;5053012;28;20259;-73
2022/02/06 10:46:58;;;;;;;2.60;1.60;;;;;;;;;;5045210;28;20279;-73
2022/02/06 10:49:25;;;;;;;1.95;1.50;;;;;;;;;;5053950;28;20250;-73
2022/02/06 10:52:01;;;;;;;3.17;1.80;;;;;;;;;;5044757;28;20185;-73
2022/02/06 10:54:30;;;;;;;2.85;1.65;;;;;;;;;;5045886;28;20217;-73
2022/02/06 10:57:13;;;;;;;2.35;1.63;;;;;;;;;;5045139;28;20189;-73
2022/02/06 10:59:54;;;;;;;2.13;1.55;;;;;;;;;;5044846;28;20200;-74
2022/02/06 11:02:27;;;;;;;3.28;1.73;;;;;;;;;;5040771;28;20332;-73
2022/02/06 11:05:10;;;;;;;2.88;1.60;;;;;;;;;;5049180;28;20216;-73
2022/02/06 11:07:36;;;;;;;2.65;1.73;;;;;;;;;;5050771;28;20240;-73
2022/02/06 11:10:13;;;;;;;1.90;1.65;;;;;;;;;;5046246;28;20196;-73
2022/02/06 11:12:47;;;;;;;3.45;1.90;;;;;;;;;;5046424;28;20184;-73
2022/02/06 11:15:31;;;;;;;2.40;1.70;;;;;;;;;;5039105;28;20189;-73
2022/02/06 11:18:19;;;;;;;3.70;1.95;;;;;;;;;;5042336;28;20181;-73
2022/02/06 11:20:54;;;;;;;2.53;1.58;;;;;;;;;;5043305;28;20196;-73
2022/02/06 11:23:20;;;;;;;3.92;2.10;;;;;;;;;;5048363;28;20197;-72
2022/02/06 11:25:46;;;;;;;3.03;1.52;;;;;;;;;;5042541;28;20274;-73
2022/02/06 11:28:12;;;;;;;5.70;1.63;;;;;;;;;;5041481;28;20185;-75
2022/02/06 11:30:42;;;;;;;2.88;1.20;;;;;;;;;;5043262;28;20304;-72
2022/02/06 11:33:07;;;;;;;2.67;0.85;;;;;;;;;;5043939;28;20198;-73
2022/02/06 11:35:35;;;;;;;2.53;1.48;;;;;;;;;;5049804;28;20182;-73
2022/02/06 11:44:33;;;;;;;5.28;2.05;;;;;;;;;;5040811;28;20258;-73
2022/02/06 11:47:18;;;;;;;3.40;1.65;;;;;;;;;;5048687;28;20656;-73
2022/02/06 11:49:47;;;;;;;4.47;2.00;;;;;;;;;;5047795;28;20224;-73
2022/02/06 11:52:13;;;;;;;4.82;1.90;;;;;;;;;;5047134;28;20343;-73
2022/02/06 11:54:54;;;;;;;3.05;1.60;;;;;;;;;;5043624;28;20182;-74
2022/02/06 11:57:23;;;;;;;1.65;0.47;;;;;;;;;;5044191;28;20188;-76
2022/02/06 12:00:16;;;;;;;2.63;0.30;;;;;;;;;;5050041;28;20668;-75
2022/02/06 12:02:49;;;;;;;1.00;0.33;;;;;;;;;;5045307;28;20223;-75
2022/02/06 12:05:27;;;;;;;1.03;0.20;;;;;;;;;;5046280;28;20205;-75
2022/02/06 12:07:52;;;;;;;0.60;0.17;;;;;;;;;;5047653;28;20238;-76
2022/02/06 12:10:33;;;;;;;1.17;0.20;;;;;;;;;;5047247;28;20181;-74
2022/02/06 12:13:16;;;;;;;3.20;0.30;;;;;;;;;;5050022;28;20818;-73
2022/02/06 12:15:59;;;;;;;0.83;0.20;;;;;;;;;;5045685;28;20596;-73
2022/02/06 12:18:26;;;;;;;3.60;0.30;;;;;;;;;;5047575;28;20577;-71
2022/02/06 12:20:55;;;;;;;2.03;0.30;;;;;;;;;;5049995;28;20592;-71
2022/02/06 12:23:54;;;;;;;1.63;0.23;;;;;;;;;;5048620;28;20185;-70
2022/02/06 12:26:27;;;;;;;1.47;0.40;;;;;;;;;;5043382;28;20197;-71
2022/02/06 12:28:57;;;;;;;2.47;0.20;;;;;;;;;;5040280;28;20772;-72
2022/02/06 12:31:31;;;;;;;1.27;0.20;;;;;;;;;;5041832;28;20205;-72
2022/02/06 12:39:27;;;;;;;1.80;0.60;;;;;;;;;;5042751;28;20208;-71
2022/02/06 12:41:54;;;;;;;3.40;0.40;;;;;;;;;;5042947;28;20188;-71
2022/02/06 12:44:19;;;;;;;5.73;0.90;;;;;;;;;;5045675;28;20238;-72
2022/02/06 12:46:47;;;;;;;3.27;0.60;;;;;;;;;;5041794;28;20197;-73
2022/02/06 12:49:17;;;;;;;1.70;1.07;;;;;;;;;;5044858;28;20196;-70
2022/02/06 12:51:42;;;;;;;1.80;1.20;;;;;;;;;;5039827;28;20185;-69
2022/02/06 12:54:11;;;;;;;3.70;0.60;;;;;;;;;;5046408;28;20576;-69
2022/02/06 12:56:38;;;;;;;2.27;0.60;;;;;;;;;;5042354;28;20192;-70
2022/02/06 12:59:04;;;;;;;3.10;0.57;;;;;;;;;;5045731;28;20221;-69
2022/02/06 13:01:40;;;;;;;1.93;0.30;;;;;;;;;;5039302;28;20820;-69
2022/02/06 13:04:09;;;;;;;2.90;0.40;;;;;;;;;;5045315;28;20201;-71
2022/02/06 13:06:48;;;;;;;1.03;0.60;;;;;;;;;;5045616;28;20193;-69
2022/02/06 13:09:20;;;;;;;2.20;0.57;;;;;;;;;;5044078;28;20182;-69
2022/02/06 13:12:03;;;;;;;4.03;0.50;;;;;;;;;;5043435;28;20209;-69
2022/02/06 13:17:58;;;;;;;2.33;0.40;;;;;;;;;;5042733;28;20644;-69
2022/02/06 13:20:38;;;;;;;5.50;0.70;;;;;;;;;;5048940;28;20660;-67
2022/02/06 13:28:26;;;;;;;3.57;0.40;;;;;;;;;;5045989;28;20201;-69
2022/02/06 13:31:04;;;;;;;6.77;0.57;;;;;;;;;;5048549;28;20292;-69
2022/02/06 13:36:31;;;;;;;3.97;0.67;;;;;;;;;;5056341;28;20185;-70
2022/02/06 13:39:36;;;;;;;3.60;0.43;;;;;;;;;;5044915;28;20251;-69
2022/02/06 13:41:49;;;;;;;3.10;0.57;;;;;;;;;;5046852;28;20204;-69
2022/02/06 13:44:18;;;;;;;4.97;0.57;;;;;;;;;;5051577;28;20193;-69
2022/02/06 13:46:46;;;;;;;5.17;0.60;;;;;;;;;;5048058;28;20185;-68
2022/02/06 13:49:12;;;;;;;3.43;0.70;;;;;;;;;;5044913;28;20197;-69
2022/02/06 13:51:50;;;;;;;2.63;0.73;;;;;;;;;;5044916;28;20201;-68
2022/02/06 13:54:17;;;;;;;1.40;0.40;;;;;;;;;;5047489;28;20641;-69
2022/02/06 13:56:43;;;;;;;3.20;0.57;;;;;;;;;;5050099;28;20821;-68
2022/02/06 13:59:10;;;;;;;1.97;0.43;;;;;;;;;;5048178;28;20177;-68
2022/02/06 14:01:54;;;;;;;4.43;0.50;;;;;;;;;;5045739;28;20259;-68
2022/02/06 14:04:30;;;;;;;6.53;0.97;;;;;;;;;;5050910;28;20563;-68
2022/02/06 14:07:22;;;;;;;4.57;0.50;;;;;;;;;;5043739;28;20284;-69
2022/02/06 14:10:10;;;;;;;6.70;0.70;;;;;;;;;;5045782;28;20213;-69
2022/02/06 14:12:54;;;;;;;4.40;0.87;;;;;;;;;;5048078;28;20188;-69
2022/02/06 14:15:21;;;;;;;7.03;0.80;;;;;;;;;;5049859;28;20192;-68
2022/02/06 14:17:49;;;;;;;6.23;0.70;;;;;;;;;;5049311;28;20185;-69
2022/02/06 14:20:23;;;;;;;6.20;0.77;;;;;;;;;;5046340;28;20214;-69
2022/02/06 14:22:53;;;;;;;4.57;0.87;;;;;;;;;;5042893;28;20181;-69
2022/02/06 14:25:31;;;;;;;6.53;0.87;;;;;;;;;;5043402;28;20216;-68
2022/02/06 14:27:57;;;;;;;4.67;0.90;;;;;;;;;;5044302;28;20202;-68
2022/02/06 14:30:25;;;;;;;4.47;0.80;;;;;;;;;;5047411;28;20259;-68
2022/02/06 14:33:25;;;;;;;2.43;0.80;;;;;;;;;;5046431;28;20563;-68
2022/02/06 14:35:55;;;;;;;5.73;0.73;;;;;;;;;;5056645;28;20197;-69
2022/02/06 14:38:32;;;;;;;5.60;0.80;;;;;;;;;;5043539;28;20190;-68
2022/02/06 14:41:35;;;;;;;6.20;1.00;;;;;;;;;;5048007;28;20473;-68
2022/02/06 14:44:04;;;;;;;6.97;1.00;;;;;;;;;;5044423;28;20263;-68
2022/02/06 14:46:31;;;;;;;5.40;0.83;;;;;;;;;;5057646;28;20216;-69
2022/02/06 14:48:58;;;;;;;3.53;0.57;;;;;;;;;;5046198;28;20625;-69
2022/02/06 14:51:26;;;;;;;2.57;0.50;;;;;;;;;;5044329;28;20288;-72
2022/02/06 14:54:02;;;;;;;7.10;1.20;;;;;;;;;;5045225;28;20194;-72
2022/02/06 14:56:29;;;;;;;8.23;1.00;;;;;;;;;;4346443;28;10000692;-72
2022/02/06 14:58:55;;;;;;;5.07;1.23;;;;;;;;;;5043307;28;21184;-75
2022/02/06 15:01:21;;;;;;;4.07;0.87;;;;;;;;;;5041693;28;20240;-73
2022/02/06 15:03:46;;;;;;;4.33;0.87;;;;;;;;;;5045942;28;20191;-72
2022/02/06 15:06:11;;;;;;;5.43;1.20;;;;;;;;;;5041154;28;20249;-72
2022/02/06 15:08:37;;;;;;;5.73;1.60;;;;;;;;;;5047766;28;20261;-71
2022/02/06 15:11:02;;;;;;;3.97;1.20;;;;;;;;;;5047831;28;20181;-71
2022/02/06 15:13:32;;;;;;;5.23;1.10;;;;;;;;;;5049275;28;20270;-73
2022/02/06 15:16:03;;;;;;;5.03;1.13;;;;;;;;;;5041497;28;20812;-70
2022/02/06 15:18:36;;;;;;;5.10;0.80;;;;;;;;;;5048742;28;20189;-70
2022/02/06 15:21:03;;;;;;;3.43;0.97;;;;;;;;;;5037708;28;20533;-69
2022/02/06 15:23:28;;;;;;;5.20;1.07;;;;;;;;;;5048494;28;20664;-68
2022/02/06 15:25:55;;;;;;;5.70;1.03;;;;;;;;;;5047205;28;20379;-70
2022/02/06 15:28:21;;;;;;;6.43;1.10;;;;;;;;;;5054148;28;20188;-69
2022/02/06 15:30:46;;;;;;;7.23;1.40;;;;;;;;;;5045994;28;20582;-70
2022/02/06 15:33:12;;;;;;;6.30;1.20;;;;;;;;;;5056909;28;20184;-69
2022/02/06 15:35:38;;;;;;;6.40;1.07;;;;;;;;;;5048476;28;20184;-69
2022/02/06 15:38:06;;;;;;;8.60;1.20;;;;;;;;;;5050210;28;20196;-70
2022/02/06 15:40:32;;;;;;;5.83;1.07;;;;;;;;;;5045385;28;20457;-69
2022/02/06 15:42:58;;;;;;;5.67;0.90;;;;;;;;;;5042487;28;20200;-68
2022/02/06 15:45:24;;;;;;;9.40;1.10;;;;;;;;;;5040140;28;20203;-69
2022/02/06 15:47:49;;;;;;;5.70;0.83;;;;;;;;;;5042116;28;20671;-68
2022/02/06 15:50:15;;;;;;;11.63;1.33;;;;;;;;;;5049017;28;20185;-68
2022/02/06 15:52:40;;;;;;;6.07;0.73;;;;;;;;;;5047513;28;20190;-68
2022/02/06 15:55:06;;;;;;;4.53;0.73;;;;;;;;;;5048054;28;20306;-68
2022/02/06 15:57:31;;;;;;;9.80;1.47;;;;;;;;;;5049631;28;20258;-69
2022/02/06 15:59:57;;;;;;;6.73;1.07;;;;;;;;;;5049357;28;20271;-69
2022/02/06 16:02:22;;;;;;;9.93;0.90;;;;;;;;;;5046711;28;20257;-70
2022/02/06 16:04:48;;;;;;;7.40;0.93;;;;;;;;;;5048631;28;20308;-69
2022/02/06 16:07:13;;;;;;;5.83;1.30;;;;;;;;;;5051458;28;20181;-69
2022/02/06 16:09:41;;;;;;;4.60;0.93;;;;;;;;;;5045432;28;20231;-69
2022/02/06 16:12:08;;;;;;;10.53;1.33;;;;;;;;;;5051142;28;20569;-69
2022/02/06 16:14:34;;;;;;;9.73;1.60;;;;;;;;;;5048109;28;20177;-69
2022/02/06 16:17:00;;;;;;;6.00;1.10;;;;;;;;;;5043984;28;20186;-69
2022/02/06 16:19:25;;;;;;;6.33;1.20;;;;;;;;;;5051738;28;20177;-69
2022/02/06 16:21:51;;;;;;;8.07;1.20;;;;;;;;;;5048259;28;20181;-70
2022/02/06 16:24:17;;;;;;;7.63;1.70;;;;;;;;;;5047533;28;20184;-69
2022/02/06 16:26:42;;;;;;;6.93;1.20;;;;;;;;;;5051115;28;20243;-68
2022/02/06 16:29:08;;;;;;;6.10;1.40;;;;;;;;;;5052882;28;20188;-67
2022/02/06 16:31:33;;;;;;;5.27;1.07;;;;;;;;;;5048582;28;20256;-69
2022/02/06 16:33:59;;;;;;;4.57;1.30;;;;;;;;;;5056714;28;20188;-69
2022/02/06 16:36:25;;;;;;;5.50;1.20;;;;;;;;;;5045712;28;20192;-69
2022/02/06 16:38:51;;;;;;;3.00;0.63;;;;;;;;;;5051708;28;20269;-70
2022/02/06 16:41:16;;;;;;;2.90;0.60;;;;;;;;;;5043176;28;20331;-70
2022/02/06 16:43:42;;;;;;;3.77;0.40;;;;;;;;;;5050823;28;20530;-71
2022/02/06 16:46:07;;;;;;;2.97;0.30;;;;;;;;;;5035276;28;20697;-72
2022/02/06 16:48:33;;;;;;;3.70;0.37;;;;;;;;;;5047068;28;20602;-70
2022/02/06 16:50:59;;;;;;;2.70;0.37;;;;;;;;;;5041113;28;20219;-72
2022/02/06 16:53:26;;;;;;;0.53;0.23;;;;;;;;;;5048983;28;20563;-71
2022/02/06 16:55:52;;;;;;;3.07;0.30;;;;;;;;;;5043344;28;21169;-69
2022/02/06 16:58:17;;;;;;;2.03;0.30;;;;;;;;;;5040757;28;21268;-70
2022/02/06 17:00:44;;;;;;;2.13;0.40;;;;;;;;;;5041950;28;20185;-69
2022/02/06 17:03:09;;;;;;;4.73;0.70;;;;;;;;;;5040470;28;20197;-69
2022/02/06 17:05:34;;;;;;;2.33;0.60;;;;;;;;;;5044354;28;20232;-70
2022/02/06 17:08:01;;;;;;;1.70;0.50;;;;;;;;;;5042644;28;20197;-69
2022/02/06 17:10:30;;;;;;;2.37;0.40;;;;;;;;;;5047171;28;20180;-70
2022/02/06 17:12:55;;;;;;;4.10;0.50;;;;;;;;;;5044248;28;20217;-69
2022/02/06 17:15:21;;;;;;;2.77;0.30;;;;;;;;;;5049659;28;20223;-69
2022/02/06 17:17:46;;;;;;;3.63;0.60;;;;;;;;;;5052371;28;20188;-70
2022/02/06 17:20:11;;;;;;;2.47;0.50;;;;;;;;;;5043574;28;20178;-70
2022/02/06 17:22:37;;;;;;;2.33;0.30;;;;;;;;;;5044615;28;20186;-70